Euskara    
Meteorología y climatología de Navarra
Datos de la estación - Meteo Navarra

Estación de Pamplona GN

Altitud 455 m.


Datos desde el 14/01/2021 hasta el 15/01/2021 en horario solar
Los datos son PROVISIONALES

Anterior Página 1 de 1 Siguiente Descargar: Formato para Excel 2000 o superior   Formato csv   Formato para OpenOffice Calc
Fecha Temperatura Humedad relativa Radiación global Insolación Precipitación Vel. viento 10 m Vel. viento 10 m Dir. viento 10 m
°C % W/m² s l/m² m/s km/h °
14/01/2021 0:00 6.3 87 0.0 0 0.0 2.6 9.4 307
14/01/2021 0:10 6.3 86 0.0 0 0.0 2.8 10.2 321
14/01/2021 0:20 6.4 85 0.0 0 0.0 3.5 12.6 314
14/01/2021 0:30 6.4 84 0.0 0 0.0 3.2 11.6 309
14/01/2021 0:40 6.5 83 0.0 0 0.0 2.7 9.7 303
14/01/2021 0:50 6.5 83 0.0 0 0.0 3.2 11.6 301
14/01/2021 1:00 6.5 83 0.0 0 0.0 3.2 11.4 308
14/01/2021 1:10 6.6 82 0.0 0 0.0 2.6 9.2 320
14/01/2021 1:20 6.7 81 0.0 0 0.0 2.4 8.5 310
14/01/2021 1:30 6.8 81 0.0 0 0.0 2.2 7.7 300
14/01/2021 1:40 6.7 81 0.0 0 0.0 2.5 9.0 312
14/01/2021 1:50 6.7 80 0.0 0 0.0 2.7 9.6 306
14/01/2021 2:00 6.8 80 0.0 0 0.0 2.9 10.3 307
14/01/2021 2:10 6.8 80 0.0 0 0.0 2.6 9.3 307
14/01/2021 2:20 6.7 81 0.0 0 0.0 3.6 12.9 297
14/01/2021 2:30 6.7 81 0.0 0 0.0 2.8 10.2 313
14/01/2021 2:40 6.8 80 0.0 0 0.0 3.7 13.1 305
14/01/2021 2:50 6.8 79 0.0 0 0.0 3.8 13.7 302
14/01/2021 3:00 6.9 78 0.0 0 0.0 3.5 12.5 312
14/01/2021 3:10 7.0 76 0.0 0 0.0 3.3 11.8 302
14/01/2021 3:20 7.1 76 0.0 0 0.0 4.0 14.4 294
14/01/2021 3:30 7.0 77 0.0 0 0.0 3.9 14.2 303
14/01/2021 3:40 6.9 79 0.0 0 0.0 3.6 12.8 299
14/01/2021 3:50 6.9 79 0.0 0 0.0 3.8 13.8 291
14/01/2021 4:00 6.8 79 0.0 0 0.0 3.8 13.8 294
14/01/2021 4:10 6.8 78 0.0 0 0.0 4.0 14.5 292
14/01/2021 4:20 6.8 78 0.0 0 0.0 3.8 13.6 293
14/01/2021 4:30 6.8 78 0.0 0 0.0 2.2 7.8 308
14/01/2021 4:40 6.7 79 0.0 0 0.0 1.6 5.8 304
14/01/2021 4:50 6.7 78 0.0 0 0.0 2.5 9.1 299
14/01/2021 5:00 6.7 78 0.0 0 0.0 2.7 9.7 288
14/01/2021 5:10 6.7 79 0.0 0 0.0 3.2 11.4 288
14/01/2021 5:20 6.6 80 0.0 0 0.0 3.4 12.1 289
14/01/2021 5:30 6.5 81 0.0 0 0.0 3.0 10.9 296
14/01/2021 5:40 6.5 81 0.0 0 0.0 3.7 13.2 293
14/01/2021 5:50 6.4 81 0.0 0 0.0 3.5 12.5 292
14/01/2021 6:00 6.5 80 0.0 0 0.0 3.6 13.0 296
14/01/2021 6:10 6.6 80 0.0 0 0.0 3.8 13.8 297
14/01/2021 6:20 6.6 79 0.0 0 0.0 3.3 12.0 295
14/01/2021 6:30 6.7 78 0.0 0 0.0 4.0 14.3 300
14/01/2021 6:40 6.8 75 0.0 0 0.0 3.6 13.1 296
14/01/2021 6:50 6.8 75 0.0 0 0.0 3.9 13.9 295
14/01/2021 7:00 6.9 74 0.0 0 0.0 3.5 12.7 305
14/01/2021 7:10 6.9 73 0.0 0 0.0 3.4 12.3 299
14/01/2021 7:20 7.0 74 0.0 0 0.0 3.5 12.6 299
14/01/2021 7:30 6.9 75 0.0 0 0.0 3.4 12.2 296
14/01/2021 7:40 6.9 76 0.0 0 0.0 3.6 13.0 290
14/01/2021 7:50 6.9 76 0.0 0 0.0 3.5 12.6 293
14/01/2021 8:00 6.9 74 0.0 0 0.0 3.5 12.5 296
14/01/2021 8:10 7.0 75 0.0 0 0.0 4.1 14.7 299
14/01/2021 8:20 7.0 75 11.1 0 0.0 4.2 15.0 298
14/01/2021 8:30 7.0 76 23.5 0 0.0 3.6 12.9 299
14/01/2021 8:40 7.0 76 21.3 0 0.0 4.1 14.7 292
14/01/2021 8:50 6.9 76 14.9 0 0.0 3.8 13.5 297
14/01/2021 9:00 6.9 76 20.6 0 0.0 3.5 12.5 302
14/01/2021 9:10 6.9 77 33.3 0 0.0 3.3 11.8 310
14/01/2021 9:20 6.9 76 53.6 0 0.0 3.5 12.6 305
14/01/2021 9:30 6.9 76 58.5 0 0.0 4.2 15.3 304
14/01/2021 9:40 6.9 76 64.2 0 0.0 3.9 13.9 309
14/01/2021 9:50 6.9 76 69.6 0 0.0 3.7 13.2 312
14/01/2021 10:00 6.9 75 79.7 0 0.0 3.4 12.3 322
14/01/2021 10:10 7.0 75 81.9 0 0.0 4.0 14.3 309
14/01/2021 10:20 7.0 74 85.0 0 0.0 3.8 13.6 303
14/01/2021 10:30 7.1 73 95.5 0 0.0 3.7 13.5 293
14/01/2021 10:40 7.1 72 111.5 0 0.0 3.2 11.6 296
14/01/2021 10:50 7.2 72 106.7 0 0.0 2.7 9.8 298
14/01/2021 11:00 7.2 71 95.1 0 0.0 3.5 12.5 302
14/01/2021 11:10 7.3 71 99.2 0 0.0 3.9 14.0 300
14/01/2021 11:20 7.2 72 100.4 0 0.0 3.4 12.3 319
14/01/2021 11:30 7.2 71 131.1 0 0.0 3.5 12.5 309
14/01/2021 11:40 7.4 70 144.3 0 0.0 3.7 13.2 306
14/01/2021 11:50 7.6 70 143.0 0 0.0 2.8 10.1 318
14/01/2021 12:00 7.6 70 124.3 0 0.0 2.2 8.0 315
14/01/2021 12:10 7.7 70 142.7 0 0.0 2.2 7.9 323
14/01/2021 12:20 7.8 69 165.7 0 0.0 2.3 8.4 305
14/01/2021 12:30 7.9 69 155.0 0 0.0 2.8 10.2 311
14/01/2021 12:40 8.0 69 131.8 0 0.0 2.7 9.9 309
14/01/2021 12:50 7.9 69 119.4 0 0.0 2.4 8.8 334
14/01/2021 13:00 7.9 71 140.0 0 0.0 2.2 8.0 311
14/01/2021 13:10 8.0 70 171.8 0 0.0 2.1 7.5 312
14/01/2021 13:20 8.0 69 224.7 212 0.0 2.4 8.5 324
14/01/2021 13:30 8.2 68 140.9 0 0.0 2.5 9.1 293
14/01/2021 13:40 8.1 68 99.9 0 0.0 3.0 10.9 296
14/01/2021 13:50 8.2 68 108.8 0 0.0 2.4 8.5 308
14/01/2021 14:00 8.1 69 106.0 0 0.0 3.0 10.9 300
14/01/2021 14:10 8.1 70 109.9 0 0.0 2.8 10.2 304
14/01/2021 14:20 8.0 71 129.2 4 0.0 3.0 10.9 303
14/01/2021 14:30 8.0 72 162.7 124 0.0 2.7 9.8 296
14/01/2021 14:40 8.0 72 114.0 0 0.0 3.1 11.0 307
14/01/2021 14:50 7.9 72 99.0 0 0.0 2.6 9.5 302
14/01/2021 15:00 7.9 73 94.6 0 0.0 3.8 13.7 294
14/01/2021 15:10 7.9 73 94.1 0 0.0 2.0 7.1 332
14/01/2021 15:20 7.9 74 101.9 0 0.0 1.6 5.7 348
14/01/2021 15:30 8.0 74 141.3 290 0.0 1.8 6.3 325
14/01/2021 15:40 8.0 74 83.2 0 0.0 1.4 4.9 349
14/01/2021 15:50 8.0 75 66.9 0 0.0 2.0 7.3 326
14/01/2021 16:00 7.7 76 34.5 0 0.0 2.3 8.4 316
14/01/2021 16:10 7.5 77 20.6 0 0.0 2.2 7.9 308
14/01/2021 16:20 7.3 79 6.8 0 0.0 1.9 7.0 307
14/01/2021 16:30 7.3 80 0.0 0 0.0 1.9 6.9 323
14/01/2021 16:40 7.2 81 0.0 0 0.0 1.7 6.0 337
14/01/2021 16:50 7.2 81 0.0 0 0.0 1.7 6.1 340
14/01/2021 17:00 7.1 82 0.0 0 0.0 1.9 6.8 344
14/01/2021 17:10 7.1 83 0.0 0 0.0 1.2 4.4 4
14/01/2021 17:20 7.0 84 0.0 0 0.0 1.0 3.6 350
14/01/2021 17:30 7.0 85 0.0 0 0.0 1.1 4.1 279
14/01/2021 17:40 6.9 86 0.0 0 0.0 0.9 3.4 287
14/01/2021 17:50 6.8 87 0.0 0 0.0 0.6 2.3 321
14/01/2021 18:00 6.8 88 0.0 0 0.0 1.2 4.2 315
14/01/2021 18:10 6.6 90 0.0 0 0.0 0.7 2.7 310
14/01/2021 18:20 6.7 91 0.0 0 0.0 0.9 3.1 283
14/01/2021 18:30 6.6 92 0.0 0 0.0 1.2 4.4 287
14/01/2021 18:40 6.6 93 0.0 0 0.0 1.2 4.4 295
14/01/2021 18:50 6.5 93 0.0 0 0.0 1.1 3.9 284
14/01/2021 19:00 6.6 94 0.0 0 0.0 1.3 4.6 300
14/01/2021 19:10 6.6 94 0.0 0 0.1 1.6 5.7 298
14/01/2021 19:20 6.6 94 0.0 0 0.0 1.7 5.9 296
14/01/2021 19:30 6.6 94 0.0 0 0.1 1.4 5.0 295
14/01/2021 19:40 6.7 94 0.0 0 0.0 1.7 6.3 280
14/01/2021 19:50 6.8 94 0.0 0 0.0 2.2 7.8 274
14/01/2021 20:00 6.9 94 0.0 0 0.0 1.7 6.0 277
14/01/2021 20:10 6.9 94 0.0 0 0.0 1.4 5.2 281
14/01/2021 20:20 7.1 93 0.0 0 0.0 2.2 7.9 280
14/01/2021 20:30 7.2 92 0.0 0 0.0 2.4 8.8 286
14/01/2021 20:40 7.5 90 0.0 0 0.1 1.9 6.9 303
14/01/2021 20:50 7.4 90 0.0 0 0.0 1.8 6.4 318
14/01/2021 21:00 7.6 89 0.0 0 0.1 2.2 7.8 303
14/01/2021 21:10 7.9 88 0.0 0 0.0 2.2 7.9 319
14/01/2021 21:20 7.9 88 0.0 0 0.2 3.1 11.0 310
14/01/2021 21:30 7.7 91 0.0 0 0.1 2.4 8.6 306
14/01/2021 21:40 7.7 91 0.0 0 0.0 2.3 8.3 318
14/01/2021 21:50 7.8 89 0.0 0 0.0 2.4 8.6 299
14/01/2021 22:00 7.8 89 0.0 0 0.0 3.1 11.3 325
14/01/2021 22:10 7.8 87 0.0 0 0.1 2.7 9.7 322
14/01/2021 22:20 7.8 87 0.0 0 0.0 2.8 10.2 329
14/01/2021 22:30 7.9 84 0.0 0 0.0 3.5 12.7 338
14/01/2021 22:40 8.0 82 0.0 0 0.0 3.5 12.7 334
14/01/2021 22:50 7.8 81 0.0 0 0.0 3.6 13.0 329
14/01/2021 23:00 7.8 78 0.0 0 0.0 3.9 13.9 335
14/01/2021 23:10 7.8 77 0.0 0 0.0 3.9 13.9 335
14/01/2021 23:20 7.7 76 0.0 0 0.0 3.9 14.0 332
14/01/2021 23:30 7.7 75 0.0 0 0.0 4.3 15.4 331
14/01/2021 23:40 7.5 75 0.0 0 0.0 4.0 14.3 339
14/01/2021 23:50 7.5 74 0.0 0 0.0 3.5 12.6 343
Anterior Página 1 de 1 Siguiente

NOTA: Tipo de datos según el color:
   - Valores diarios o 10 minutos correctos
   - Valores diarios calculados a partir de un número de datos 10 minutos menor que 144 y mayor que 120, o de un número de datos semihorarios menor que 48 y mayor que 40 (caso de las estaciones de INTIA Y Ministerio)
   - Valores diez minutos estimados


Contacto        Enlaces        Aviso legal